Sao Jose Dos Campos, Brazil
Current Conditions -  °F | °C
As of 9:00 PM on Saturday 22 Nov 2014 (Local Time) from SBSJ Reporting Station
Haze Haze  
Wind Chill: 73°   Ceiling: 10000
Heat Index: 73°   Visibility: 3mi
Dew Point: 70°   Wind: 3mph
Humidity: 88%   Direction: 50°NE
Pressure: 29.97"   Gusts: NA
Location:  23.2°S, 45.88°W
Report Text: SBSJ 222300Z 05003KT 5000 BR SCT027 BKN100 23/21 Q1015
Loading
Personal Weather Stations






























Interactive Weather Map New forecast layout! Learn more

10-Day Weather Forecast

Advertisements
Track Severe Weather on mobile